sensor_id;sensor_type;location;lat;lon;timestamp;P1;durP1;ratioP1;P2;durP2;ratioP2
52878;SDS011;38747;53.140;6.498;2023-07-28T00:02:16;18.10;;;5.72;;
52878;SDS011;38747;53.140;6.498;2023-07-28T00:04:42;16.33;;;5.70;;
52878;SDS011;38747;53.140;6.498;2023-07-28T00:07:08;16.15;;;6.13;;
52878;SDS011;38747;53.140;6.498;2023-07-28T00:09:33;13.87;;;5.63;;
52878;SDS011;38747;53.140;6.498;2023-07-28T00:11:59;16.37;;;5.77;;
52878;SDS011;38747;53.140;6.498;2023-07-28T00:14:26;11.85;;;5.22;;
52878;SDS011;38747;53.140;6.498;2023-07-28T00:16:52;14.20;;;5.45;;
52878;SDS011;38747;53.140;6.498;2023-07-28T00:19:19;13.38;;;5.65;;
52878;SDS011;38747;53.140;6.498;2023-07-28T00:21:47;17.73;;;5.85;;
52878;SDS011;38747;53.140;6.498;2023-07-28T00:24:13;20.20;;;6.13;;
52878;SDS011;38747;53.140;6.498;2023-07-28T00:26:39;16.17;;;6.28;;
52878;SDS011;38747;53.140;6.498;2023-07-28T00:29:05;13.47;;;5.83;;
52878;SDS011;38747;53.140;6.498;2023-07-28T00:31:31;16.20;;;6.25;;
52878;SDS011;38747;53.140;6.498;2023-07-28T00:33:57;18.20;;;6.57;;
52878;SDS011;38747;53.140;6.498;2023-07-28T00:36:23;19.47;;;6.97;;
52878;SDS011;38747;53.140;6.498;2023-07-28T00:38:48;18.67;;;6.63;;
52878;SDS011;38747;53.140;6.498;2023-07-28T00:41:14;16.10;;;5.90;;
52878;SDS011;38747;53.140;6.498;2023-07-28T00:43:40;18.17;;;6.53;;
52878;SDS011;38747;53.140;6.498;2023-07-28T00:46:05;13.00;;;6.10;;
52878;SDS011;38747;53.140;6.498;2023-07-28T00:48:31;17.20;;;6.88;;
52878;SDS011;38747;53.140;6.498;2023-07-28T00:50:57;18.55;;;7.47;;
52878;SDS011;38747;53.140;6.498;2023-07-28T00:53:23;20.00;;;7.37;;
52878;SDS011;38747;53.140;6.498;2023-07-28T00:55:49;18.80;;;7.10;;
52878;SDS011;38747;53.140;6.498;2023-07-28T00:58:16;23.52;;;7.75;;
52878;SDS011;38747;53.140;6.498;2023-07-28T01:00:42;17.50;;;7.10;;
52878;SDS011;38747;53.140;6.498;2023-07-28T01:03:08;23.57;;;8.47;;
52878;SDS011;38747;53.140;6.498;2023-07-28T01:05:37;20.83;;;7.55;;
52878;SDS011;38747;53.140;6.498;2023-07-28T01:08:25;24.57;;;7.43;;
52878;SDS011;38747;53.140;6.498;2023-07-28T01:10:57;21.92;;;7.70;;
52878;SDS011;38747;53.140;6.498;2023-07-28T01:13:23;22.10;;;8.60;;
52878;SDS011;38747;53.140;6.498;2023-07-28T01:15:49;23.10;;;8.57;;
52878;SDS011;38747;53.140;6.498;2023-07-28T01:18:14;25.23;;;8.50;;
52878;SDS011;38747;53.140;6.498;2023-07-28T01:20:40;19.90;;;7.77;;
52878;SDS011;38747;53.140;6.498;2023-07-28T01:23:08;21.73;;;8.43;;
52878;SDS011;38747;53.140;6.498;2023-07-28T01:26:01;25.40;;;7.80;;
52878;SDS011;38747;53.140;6.498;2023-07-28T01:28:31;27.30;;;8.13;;
52878;SDS011;38747;53.140;6.498;2023-07-28T01:31:00;21.23;;;7.87;;
52878;SDS011;38747;53.140;6.498;2023-07-28T01:33:27;23.77;;;8.60;;
52878;SDS011;38747;53.140;6.498;2023-07-28T01:35:53;28.08;;;8.55;;
52878;SDS011;38747;53.140;6.498;2023-07-28T01:38:18;19.20;;;7.53;;
52878;SDS011;38747;53.140;6.498;2023-07-28T01:40:44;23.02;;;8.60;;
52878;SDS011;38747;53.140;6.498;2023-07-28T01:43:10;21.70;;;7.67;;
52878;SDS011;38747;53.140;6.498;2023-07-28T01:45:35;19.00;;;8.43;;
52878;SDS011;38747;53.140;6.498;2023-07-28T01:48:01;23.83;;;8.37;;
52878;SDS011;38747;53.140;6.498;2023-07-28T01:50:27;19.87;;;8.27;;
52878;SDS011;38747;53.140;6.498;2023-07-28T01:52:52;20.37;;;8.53;;
52878;SDS011;38747;53.140;6.498;2023-07-28T01:55:18;24.13;;;8.02;;
52878;SDS011;38747;53.140;6.498;2023-07-28T01:57:50;21.40;;;8.40;;
52878;SDS011;38747;53.140;6.498;2023-07-28T02:00:23;26.45;;;8.25;;
52878;SDS011;38747;53.140;6.498;2023-07-28T02:02:50;22.02;;;8.43;;
52878;SDS011;38747;53.140;6.498;2023-07-28T02:05:16;21.77;;;9.40;;
52878;SDS011;38747;53.140;6.498;2023-07-28T02:07:42;18.27;;;8.47;;
52878;SDS011;38747;53.140;6.498;2023-07-28T02:10:07;30.42;;;8.60;;
52878;SDS011;38747;53.140;6.498;2023-07-28T02:12:35;22.63;;;8.63;;
52878;SDS011;38747;53.140;6.498;2023-07-28T02:15:01;22.70;;;8.20;;
52878;SDS011;38747;53.140;6.498;2023-07-28T02:17:27;24.67;;;8.38;;
52878;SDS011;38747;53.140;6.498;2023-07-28T02:19:53;22.47;;;7.80;;
52878;SDS011;38747;53.140;6.498;2023-07-28T02:22:18;21.57;;;7.73;;
52878;SDS011;38747;53.140;6.498;2023-07-28T02:24:44;20.67;;;8.03;;
52878;SDS011;38747;53.140;6.498;2023-07-28T02:27:10;20.20;;;7.88;;
52878;SDS011;38747;53.140;6.498;2023-07-28T02:29:35;19.00;;;7.13;;
52878;SDS011;38747;53.140;6.498;2023-07-28T02:32:01;18.90;;;7.80;;
52878;SDS011;38747;53.140;6.498;2023-07-28T02:34:27;23.50;;;7.50;;
52878;SDS011;38747;53.140;6.498;2023-07-28T02:36:53;20.70;;;7.50;;
52878;SDS011;38747;53.140;6.498;2023-07-28T02:39:18;21.45;;;7.93;;
52878;SDS011;38747;53.140;6.498;2023-07-28T02:41:45;19.05;;;6.97;;
52878;SDS011;38747;53.140;6.498;2023-07-28T02:44:11;24.17;;;7.33;;
52878;SDS011;38747;53.140;6.498;2023-07-28T02:46:36;22.42;;;7.65;;
52878;SDS011;38747;53.140;6.498;2023-07-28T02:49:02;21.33;;;7.00;;
52878;SDS011;38747;53.140;6.498;2023-07-28T02:51:29;28.20;;;7.63;;
52878;SDS011;38747;53.140;6.498;2023-07-28T02:53:55;22.42;;;6.88;;
52878;SDS011;38747;53.140;6.498;2023-07-28T02:56:21;23.30;;;7.33;;
52878;SDS011;38747;53.140;6.498;2023-07-28T02:58:47;18.90;;;7.28;;
52878;SDS011;38747;53.140;6.498;2023-07-28T03:01:13;18.75;;;7.15;;
52878;SDS011;38747;53.140;6.498;2023-07-28T03:03:39;21.17;;;7.10;;
52878;SDS011;38747;53.140;6.498;2023-07-28T03:06:05;20.70;;;7.00;;
52878;SDS011;38747;53.140;6.498;2023-07-28T03:08:31;19.90;;;6.87;;
52878;SDS011;38747;53.140;6.498;2023-07-28T03:10:59;19.92;;;6.78;;
52878;SDS011;38747;53.140;6.498;2023-07-28T03:13:27;19.98;;;6.57;;
52878;SDS011;38747;53.140;6.498;2023-07-28T03:15:53;17.10;;;6.43;;
52878;SDS011;38747;53.140;6.498;2023-07-28T03:18:19;20.58;;;6.50;;
52878;SDS011;38747;53.140;6.498;2023-07-28T03:20:45;17.27;;;6.50;;
52878;SDS011;38747;53.140;6.498;2023-07-28T03:23:11;19.90;;;6.38;;
52878;SDS011;38747;53.140;6.498;2023-07-28T03:25:37;17.52;;;5.95;;
52878;SDS011;38747;53.140;6.498;2023-07-28T03:28:03;17.20;;;6.30;;
52878;SDS011;38747;53.140;6.498;2023-07-28T03:30:28;18.40;;;6.40;;
52878;SDS011;38747;53.140;6.498;2023-07-28T03:32:54;16.77;;;5.47;;
52878;SDS011;38747;53.140;6.498;2023-07-28T03:35:20;14.10;;;5.97;;
52878;SDS011;38747;53.140;6.498;2023-07-28T03:37:45;13.87;;;5.57;;
52878;SDS011;38747;53.140;6.498;2023-07-28T03:40:11;17.70;;;6.27;;
52878;SDS011;38747;53.140;6.498;2023-07-28T03:42:37;15.53;;;6.10;;
52878;SDS011;38747;53.140;6.498;2023-07-28T03:45:03;17.85;;;5.72;;
52878;SDS011;38747;53.140;6.498;2023-07-28T03:47:29;18.93;;;5.67;;
52878;SDS011;38747;53.140;6.498;2023-07-28T03:49:54;17.57;;;5.93;;
52878;SDS011;38747;53.140;6.498;2023-07-28T03:52:20;18.90;;;6.13;;
52878;SDS011;38747;53.140;6.498;2023-07-28T03:54:45;14.55;;;5.28;;
52878;SDS011;38747;53.140;6.498;2023-07-28T03:57:11;17.20;;;6.20;;
52878;SDS011;38747;53.140;6.498;2023-07-28T03:59:37;17.17;;;5.65;;
52878;SDS011;38747;53.140;6.498;2023-07-28T04:02:02;14.53;;;6.13;;
52878;SDS011;38747;53.140;6.498;2023-07-28T04:04:28;18.77;;;6.20;;
52878;SDS011;38747;53.140;6.498;2023-07-28T04:06:54;18.27;;;5.80;;
52878;SDS011;38747;53.140;6.498;2023-07-28T04:09:19;19.25;;;5.70;;
52878;SDS011;38747;53.140;6.498;2023-07-28T04:11:45;16.07;;;6.30;;
52878;SDS011;38747;53.140;6.498;2023-07-28T04:14:11;17.17;;;5.93;;
52878;SDS011;38747;53.140;6.498;2023-07-28T04:16:37;17.80;;;5.57;;
52878;SDS011;38747;53.140;6.498;2023-07-28T04:19:03;18.00;;;5.82;;
52878;SDS011;38747;53.140;6.498;2023-07-28T04:21:29;15.40;;;5.67;;
52878;SDS011;38747;53.140;6.498;2023-07-28T04:23:55;20.42;;;5.85;;
52878;SDS011;38747;53.140;6.498;2023-07-28T04:26:21;14.17;;;5.77;;
52878;SDS011;38747;53.140;6.498;2023-07-28T04:28:49;13.60;;;6.10;;
52878;SDS011;38747;53.140;6.498;2023-07-28T04:31:15;17.33;;;6.10;;
52878;SDS011;38747;53.140;6.498;2023-07-28T04:33:41;12.40;;;5.43;;
52878;SDS011;38747;53.140;6.498;2023-07-28T04:36:07;15.70;;;5.07;;
52878;SDS011;38747;53.140;6.498;2023-07-28T04:38:33;16.17;;;5.03;;
52878;SDS011;38747;53.140;6.498;2023-07-28T04:40:58;15.10;;;5.47;;
52878;SDS011;38747;53.140;6.498;2023-07-28T04:43:24;18.57;;;5.40;;
52878;SDS011;38747;53.140;6.498;2023-07-28T04:45:50;12.88;;;5.20;;
52878;SDS011;38747;53.140;6.498;2023-07-28T04:48:15;12.30;;;4.93;;
52878;SDS011;38747;53.140;6.498;2023-07-28T04:50:41;15.13;;;5.45;;
52878;SDS011;38747;53.140;6.498;2023-07-28T04:53:06;13.07;;;5.27;;
52878;SDS011;38747;53.140;6.498;2023-07-28T04:55:32;13.50;;;5.15;;
52878;SDS011;38747;53.140;6.498;2023-07-28T04:57:58;15.30;;;4.63;;
52878;SDS011;38747;53.140;6.498;2023-07-28T05:00:23;14.67;;;4.90;;
52878;SDS011;38747;53.140;6.498;2023-07-28T05:02:49;13.70;;;4.80;;
52878;SDS011;38747;53.140;6.498;2023-07-28T05:05:15;14.40;;;4.38;;
52878;SDS011;38747;53.140;6.498;2023-07-28T05:07:41;13.23;;;4.57;;
52878;SDS011;38747;53.140;6.498;2023-07-28T05:10:07;13.02;;;4.40;;
52878;SDS011;38747;53.140;6.498;2023-07-28T05:12:33;10.77;;;4.63;;
52878;SDS011;38747;53.140;6.498;2023-07-28T05:14:59;13.70;;;4.50;;
52878;SDS011;38747;53.140;6.498;2023-07-28T05:17:24;13.65;;;5.00;;
52878;SDS011;38747;53.140;6.498;2023-07-28T05:19:50;14.10;;;5.22;;
52878;SDS011;38747;53.140;6.498;2023-07-28T05:22:16;14.20;;;4.70;;
52878;SDS011;38747;53.140;6.498;2023-07-28T05:24:42;12.95;;;4.80;;
52878;SDS011;38747;53.140;6.498;2023-07-28T05:27:09;14.88;;;5.07;;
52878;SDS011;38747;53.140;6.498;2023-07-28T05:29:35;13.20;;;5.03;;
52878;SDS011;38747;53.140;6.498;2023-07-28T05:32:01;11.70;;;5.30;;
52878;SDS011;38747;53.140;6.498;2023-07-28T05:34:27;15.23;;;4.90;;
52878;SDS011;38747;53.140;6.498;2023-07-28T05:36:52;14.80;;;4.93;;
52878;SDS011;38747;53.140;6.498;2023-07-28T05:39:18;9.98;;;5.03;;
52878;SDS011;38747;53.140;6.498;2023-07-28T05:41:44;14.97;;;5.10;;
52878;SDS011;38747;53.140;6.498;2023-07-28T05:44:09;15.60;;;5.35;;
52878;SDS011;38747;53.140;6.498;2023-07-28T05:46:35;17.37;;;5.37;;
52878;SDS011;38747;53.140;6.498;2023-07-28T05:49:01;10.93;;;5.20;;
52878;SDS011;38747;53.140;6.498;2023-07-28T05:51:26;12.23;;;5.13;;
52878;SDS011;38747;53.140;6.498;2023-07-28T05:53:52;14.68;;;5.45;;
52878;SDS011;38747;53.140;6.498;2023-07-28T05:56:18;14.87;;;4.43;;
52878;SDS011;38747;53.140;6.498;2023-07-28T05:58:44;11.43;;;4.60;;
52878;SDS011;38747;53.140;6.498;2023-07-28T06:01:11;11.50;;;4.85;;
52878;SDS011;38747;53.140;6.498;2023-07-28T06:03:37;13.17;;;4.80;;
52878;SDS011;38747;53.140;6.498;2023-07-28T06:06:02;10.32;;;4.50;;
52878;SDS011;38747;53.140;6.498;2023-07-28T06:08:28;12.07;;;5.63;;
52878;SDS011;38747;53.140;6.498;2023-07-28T06:10:54;9.27;;;4.80;;
52878;SDS011;38747;53.140;6.498;2023-07-28T06:13:19;10.20;;;4.97;;
52878;SDS011;38747;53.140;6.498;2023-07-28T06:15:46;12.87;;;4.90;;
52878;SDS011;38747;53.140;6.498;2023-07-28T06:18:12;10.02;;;5.13;;
52878;SDS011;38747;53.140;6.498;2023-07-28T06:20:41;12.93;;;5.10;;
52878;SDS011;38747;53.140;6.498;2023-07-28T06:23:08;11.85;;;4.90;;
52878;SDS011;38747;53.140;6.498;2023-07-28T06:25:33;9.57;;;4.68;;
52878;SDS011;38747;53.140;6.498;2023-07-28T06:27:59;11.03;;;5.47;;
52878;SDS011;38747;53.140;6.498;2023-07-28T06:30:25;13.18;;;5.20;;
52878;SDS011;38747;53.140;6.498;2023-07-28T06:32:51;9.82;;;5.10;;
52878;SDS011;38747;53.140;6.498;2023-07-28T06:35:16;10.93;;;5.63;;
52878;SDS011;38747;53.140;6.498;2023-07-28T06:37:42;9.20;;;5.45;;
52878;SDS011;38747;53.140;6.498;2023-07-28T06:40:08;9.30;;;4.93;;
52878;SDS011;38747;53.140;6.498;2023-07-28T06:42:34;12.07;;;5.80;;
52878;SDS011;38747;53.140;6.498;2023-07-28T06:45:01;9.32;;;5.30;;
52878;SDS011;38747;53.140;6.498;2023-07-28T06:47:28;10.90;;;5.23;;
52878;SDS011;38747;53.140;6.498;2023-07-28T06:49:54;10.65;;;5.40;;
52878;SDS011;38747;53.140;6.498;2023-07-28T06:52:20;10.15;;;5.15;;
52878;SDS011;38747;53.140;6.498;2023-07-28T06:54:46;8.30;;;4.73;;
52878;SDS011;38747;53.140;6.498;2023-07-28T06:57:14;8.95;;;4.85;;
52878;SDS011;38747;53.140;6.498;2023-07-28T06:59:40;8.77;;;4.95;;
52878;SDS011;38747;53.140;6.498;2023-07-28T07:02:06;8.60;;;5.18;;
52878;SDS011;38747;53.140;6.498;2023-07-28T07:04:32;9.07;;;5.00;;
52878;SDS011;38747;53.140;6.498;2023-07-28T07:06:57;8.48;;;4.88;;
52878;SDS011;38747;53.140;6.498;2023-07-28T07:09:23;8.27;;;4.53;;
52878;SDS011;38747;53.140;6.498;2023-07-28T07:11:49;8.43;;;5.20;;
52878;SDS011;38747;53.140;6.498;2023-07-28T07:14:15;8.95;;;5.10;;
52878;SDS011;38747;53.140;6.498;2023-07-28T07:16:41;11.87;;;5.20;;
52878;SDS011;38747;53.140;6.498;2023-07-28T07:19:07;9.77;;;5.55;;
52878;SDS011;38747;53.140;6.498;2023-07-28T07:21:34;10.05;;;5.20;;
52878;SDS011;38747;53.140;6.498;2023-07-28T07:24:00;8.60;;;5.60;;
52878;SDS011;38747;53.140;6.498;2023-07-28T07:26:26;10.77;;;5.73;;
52878;SDS011;38747;53.140;6.498;2023-07-28T07:28:52;8.82;;;5.43;;
52878;SDS011;38747;53.140;6.498;2023-07-28T07:31:18;9.48;;;5.32;;
52878;SDS011;38747;53.140;6.498;2023-07-28T07:33:44;9.10;;;5.03;;
52878;SDS011;38747;53.140;6.498;2023-07-28T07:36:17;10.55;;;5.30;;
52878;SDS011;38747;53.140;6.498;2023-07-28T07:38:44;8.15;;;4.70;;
52878;SDS011;38747;53.140;6.498;2023-07-28T07:41:14;9.82;;;5.20;;
52878;SDS011;38747;53.140;6.498;2023-07-28T07:43:48;9.20;;;5.22;;
52878;SDS011;38747;53.140;6.498;2023-07-28T07:46:15;9.63;;;5.10;;
52878;SDS011;38747;53.140;6.498;2023-07-28T07:48:41;9.38;;;5.22;;
52878;SDS011;38747;53.140;6.498;2023-07-28T07:51:08;8.23;;;5.07;;
52878;SDS011;38747;53.140;6.498;2023-07-28T07:53:34;9.53;;;5.73;;
52878;SDS011;38747;53.140;6.498;2023-07-28T07:56:01;8.40;;;4.87;;
52878;SDS011;38747;53.140;6.498;2023-07-28T07:58:30;9.27;;;4.85;;
52878;SDS011;38747;53.140;6.498;2023-07-28T08:00:57;9.35;;;5.00;;
52878;SDS011;38747;53.140;6.498;2023-07-28T08:03:23;7.27;;;4.53;;
52878;SDS011;38747;53.140;6.498;2023-07-28T08:05:49;10.17;;;5.10;;
52878;SDS011;38747;53.140;6.498;2023-07-28T08:08:15;8.32;;;4.60;;
52878;SDS011;38747;53.140;6.498;2023-07-28T08:10:42;7.97;;;4.50;;
52878;SDS011;38747;53.140;6.498;2023-07-28T08:13:08;8.95;;;5.00;;
52878;SDS011;38747;53.140;6.498;2023-07-28T08:15:34;9.68;;;4.80;;
52878;SDS011;38747;53.140;6.498;2023-07-28T08:18:00;7.10;;;4.10;;
52878;SDS011;38747;53.140;6.498;2023-07-28T08:20:26;7.43;;;4.10;;
52878;SDS011;38747;53.140;6.498;2023-07-28T08:22:52;9.40;;;3.93;;
52878;SDS011;38747;53.140;6.498;2023-07-28T08:25:17;6.90;;;3.53;;
52878;SDS011;38747;53.140;6.498;2023-07-28T08:27:43;7.88;;;4.00;;
52878;SDS011;38747;53.140;6.498;2023-07-28T08:30:09;7.43;;;4.17;;
52878;SDS011;38747;53.140;6.498;2023-07-28T08:32:35;6.80;;;3.67;;
52878;SDS011;38747;53.140;6.498;2023-07-28T08:35:01;7.65;;;3.83;;
52878;SDS011;38747;53.140;6.498;2023-07-28T08:37:28;7.20;;;4.33;;
52878;SDS011;38747;53.140;6.498;2023-07-28T08:39:54;5.97;;;3.72;;
52878;SDS011;38747;53.140;6.498;2023-07-28T08:42:20;6.20;;;3.30;;
52878;SDS011;38747;53.140;6.498;2023-07-28T08:44:47;6.68;;;3.75;;
52878;SDS011;38747;53.140;6.498;2023-07-28T08:47:13;6.43;;;3.27;;
52878;SDS011;38747;53.140;6.498;2023-07-28T08:49:38;7.35;;;2.92;;
52878;SDS011;38747;53.140;6.498;2023-07-28T08:52:04;5.40;;;2.80;;
52878;SDS011;38747;53.140;6.498;2023-07-28T08:54:30;6.15;;;3.10;;
52878;SDS011;38747;53.140;6.498;2023-07-28T08:56:59;6.27;;;2.60;;
52878;SDS011;38747;53.140;6.498;2023-07-28T08:59:25;5.18;;;2.55;;
52878;SDS011;38747;53.140;6.498;2023-07-28T09:01:53;5.68;;;2.47;;
52878;SDS011;38747;53.140;6.498;2023-07-28T09:04:20;6.05;;;2.80;;
52878;SDS011;38747;53.140;6.498;2023-07-28T09:06:47;6.15;;;2.70;;
52878;SDS011;38747;53.140;6.498;2023-07-28T09:09:13;5.10;;;2.70;;
52878;SDS011;38747;53.140;6.498;2023-07-28T09:11:50;4.53;;;2.40;;
52878;SDS011;38747;53.140;6.498;2023-07-28T09:14:18;5.60;;;2.50;;
52878;SDS011;38747;53.140;6.498;2023-07-28T09:16:45;4.72;;;2.47;;
52878;SDS011;38747;53.140;6.498;2023-07-28T09:19:11;5.18;;;2.80;;
52878;SDS011;38747;53.140;6.498;2023-07-28T09:21:39;6.27;;;2.60;;
52878;SDS011;38747;53.140;6.498;2023-07-28T09:24:06;5.60;;;2.38;;
52878;SDS011;38747;53.140;6.498;2023-07-28T09:26:40;7.40;;;2.67;;
52878;SDS011;38747;53.140;6.498;2023-07-28T09:29:20;7.57;;;2.60;;
52878;SDS011;38747;53.140;6.498;2023-07-28T09:31:47;7.03;;;2.60;;
52878;SDS011;38747;53.140;6.498;2023-07-28T09:34:27;5.80;;;2.60;;
52878;SDS011;38747;53.140;6.498;2023-07-28T09:36:53;4.80;;;2.28;;
52878;SDS011;38747;53.140;6.498;2023-07-28T09:39:20;5.38;;;2.42;;
52878;SDS011;38747;53.140;6.498;2023-07-28T09:41:46;5.22;;;2.20;;
52878;SDS011;38747;53.140;6.498;2023-07-28T09:44:13;5.18;;;2.30;;
52878;SDS011;38747;53.140;6.498;2023-07-28T09:46:46;5.13;;;2.30;;
52878;SDS011;38747;53.140;6.498;2023-07-28T09:49:44;6.00;;;2.55;;
52878;SDS011;38747;53.140;6.498;2023-07-28T09:52:10;5.38;;;2.70;;
52878;SDS011;38747;53.140;6.498;2023-07-28T09:54:39;5.93;;;2.35;;
52878;SDS011;38747;53.140;6.498;2023-07-28T09:57:08;5.80;;;2.30;;
52878;SDS011;38747;53.140;6.498;2023-07-28T09:59:38;6.27;;;2.33;;
52878;SDS011;38747;53.140;6.498;2023-07-28T10:02:05;7.55;;;2.35;;
52878;SDS011;38747;53.140;6.498;2023-07-28T10:04:32;6.95;;;2.80;;
52878;SDS011;38747;53.140;6.498;2023-07-28T10:06:58;5.10;;;2.20;;
52878;SDS011;38747;53.140;6.498;2023-07-28T10:09:24;4.20;;;2.22;;
52878;SDS011;38747;53.140;6.498;2023-07-28T10:11:51;5.20;;;2.30;;
52878;SDS011;38747;53.140;6.498;2023-07-28T10:14:30;5.78;;;2.50;;
52878;SDS011;38747;53.140;6.498;2023-07-28T10:17:00;4.82;;;2.42;;
52878;SDS011;38747;53.140;6.498;2023-07-28T10:19:33;4.40;;;2.17;;
52878;SDS011;38747;53.140;6.498;2023-07-28T10:22:00;5.22;;;2.22;;
52878;SDS011;38747;53.140;6.498;2023-07-28T10:24:50;6.13;;;2.37;;
52878;SDS011;38747;53.140;6.498;2023-07-28T10:27:36;7.55;;;2.70;;
52878;SDS011;38747;53.140;6.498;2023-07-28T10:30:04;5.32;;;2.00;;
52878;SDS011;38747;53.140;6.498;2023-07-28T10:32:40;4.85;;;1.90;;
52878;SDS011;38747;53.140;6.498;2023-07-28T10:37:45;4.53;;;2.00;;
52878;SDS011;38747;53.140;6.498;2023-07-28T10:42:53;5.10;;;2.30;;
52878;SDS011;38747;53.140;6.498;2023-07-28T10:45:19;4.47;;;1.75;;
52878;SDS011;38747;53.140;6.498;2023-07-28T10:47:48;4.53;;;1.90;;
52878;SDS011;38747;53.140;6.498;2023-07-28T10:50:13;5.47;;;2.10;;
52878;SDS011;38747;53.140;6.498;2023-07-28T10:52:42;4.57;;;2.03;;
52878;SDS011;38747;53.140;6.498;2023-07-28T10:55:16;5.18;;;1.58;;
52878;SDS011;38747;53.140;6.498;2023-07-28T10:57:43;6.03;;;1.92;;
52878;SDS011;38747;53.140;6.498;2023-07-28T11:00:11;4.23;;;1.87;;
52878;SDS011;38747;53.140;6.498;2023-07-28T11:02:41;5.40;;;2.17;;
52878;SDS011;38747;53.140;6.498;2023-07-28T11:05:12;4.55;;;2.08;;
52878;SDS011;38747;53.140;6.498;2023-07-28T11:07:43;4.68;;;1.80;;
52878;SDS011;38747;53.140;6.498;2023-07-28T11:10:18;4.72;;;1.73;;
52878;SDS011;38747;53.140;6.498;2023-07-28T11:12:44;5.17;;;2.07;;
52878;SDS011;38747;53.140;6.498;2023-07-28T11:15:12;4.30;;;1.80;;
52878;SDS011;38747;53.140;6.498;2023-07-28T11:17:46;4.03;;;1.65;;
52878;SDS011;38747;53.140;6.498;2023-07-28T11:20:16;5.88;;;1.88;;
52878;SDS011;38747;53.140;6.498;2023-07-28T11:22:51;5.80;;;1.95;;
52878;SDS011;38747;53.140;6.498;2023-07-28T11:25:18;5.93;;;2.07;;
52878;SDS011;38747;53.140;6.498;2023-07-28T11:27:44;5.65;;;2.10;;
52878;SDS011;38747;53.140;6.498;2023-07-28T11:30:14;4.13;;;1.70;;
52878;SDS011;38747;53.140;6.498;2023-07-28T11:32:44;3.90;;;1.60;;
52878;SDS011;38747;53.140;6.498;2023-07-28T11:35:15;3.90;;;1.80;;
52878;SDS011;38747;53.140;6.498;2023-07-28T11:37:43;3.70;;;1.30;;
52878;SDS011;38747;53.140;6.498;2023-07-28T11:40:11;4.80;;;1.58;;
52878;SDS011;38747;53.140;6.498;2023-07-28T11:43:00;4.65;;;1.70;;
52878;SDS011;38747;53.140;6.498;2023-07-28T11:45:25;5.10;;;1.90;;
52878;SDS011;38747;53.140;6.498;2023-07-28T11:50:24;6.28;;;1.50;;
52878;SDS011;38747;53.140;6.498;2023-07-28T11:52:54;3.72;;;1.50;;
52878;SDS011;38747;53.140;6.498;2023-07-28T11:55:22;3.35;;;1.40;;
52878;SDS011;38747;53.140;6.498;2023-07-28T11:57:48;4.38;;;1.35;;
52878;SDS011;38747;53.140;6.498;2023-07-28T12:00:16;3.27;;;1.27;;
52878;SDS011;38747;53.140;6.498;2023-07-28T12:02:42;4.30;;;1.50;;
52878;SDS011;38747;53.140;6.498;2023-07-28T12:05:12;4.10;;;1.50;;
52878;SDS011;38747;53.140;6.498;2023-07-28T12:07:41;5.22;;;1.50;;
52878;SDS011;38747;53.140;6.498;2023-07-28T12:10:12;3.42;;;1.50;;
52878;SDS011;38747;53.140;6.498;2023-07-28T12:12:42;3.97;;;1.40;;
52878;SDS011;38747;53.140;6.498;2023-07-28T12:20:43;4.55;;;1.40;;
52878;SDS011;38747;53.140;6.498;2023-07-28T12:23:17;3.17;;;1.30;;
52878;SDS011;38747;53.140;6.498;2023-07-28T12:25:44;3.03;;;1.20;;
52878;SDS011;38747;53.140;6.498;2023-07-28T12:28:10;6.10;;;1.30;;
52878;SDS011;38747;53.140;6.498;2023-07-28T12:30:36;3.22;;;1.40;;
52878;SDS011;38747;53.140;6.498;2023-07-28T12:33:05;4.77;;;1.50;;
52878;SDS011;38747;53.140;6.498;2023-07-28T12:35:32;4.60;;;1.25;;
52878;SDS011;38747;53.140;6.498;2023-07-28T12:38:01;4.40;;;1.38;;
52878;SDS011;38747;53.140;6.498;2023-07-28T12:40:31;2.95;;;1.05;;
52878;SDS011;38747;53.140;6.498;2023-07-28T12:42:58;3.28;;;1.20;;
52878;SDS011;38747;53.140;6.498;2023-07-28T12:45:25;3.00;;;1.40;;
52878;SDS011;38747;53.140;6.498;2023-07-28T12:47:54;3.20;;;1.30;;
52878;SDS011;38747;53.140;6.498;2023-07-28T12:50:21;2.83;;;1.23;;
52878;SDS011;38747;53.140;6.498;2023-07-28T12:52:47;4.47;;;1.45;;
52878;SDS011;38747;53.140;6.498;2023-07-28T12:55:14;3.83;;;1.37;;
52878;SDS011;38747;53.140;6.498;2023-07-28T12:57:40;3.03;;;1.35;;
52878;SDS011;38747;53.140;6.498;2023-07-28T13:00:06;3.60;;;1.60;;
52878;SDS011;38747;53.140;6.498;2023-07-28T13:02:38;3.72;;;1.15;;
52878;SDS011;38747;53.140;6.498;2023-07-28T13:05:05;3.67;;;1.77;;
52878;SDS011;38747;53.140;6.498;2023-07-28T13:07:32;3.77;;;1.50;;
52878;SDS011;38747;53.140;6.498;2023-07-28T13:09:57;4.40;;;1.50;;
52878;SDS011;38747;53.140;6.498;2023-07-28T13:12:23;4.73;;;1.40;;
52878;SDS011;38747;53.140;6.498;2023-07-28T13:14:49;3.92;;;1.70;;
52878;SDS011;38747;53.140;6.498;2023-07-28T13:17:15;3.72;;;1.40;;
52878;SDS011;38747;53.140;6.498;2023-07-28T13:19:41;4.65;;;1.55;;
52878;SDS011;38747;53.140;6.498;2023-07-28T13:22:07;4.13;;;1.57;;
52878;SDS011;38747;53.140;6.498;2023-07-28T13:24:33;4.07;;;1.30;;
52878;SDS011;38747;53.140;6.498;2023-07-28T13:26:58;3.67;;;1.50;;
52878;SDS011;38747;53.140;6.498;2023-07-28T13:29:24;5.47;;;1.40;;
52878;SDS011;38747;53.140;6.498;2023-07-28T13:31:50;3.40;;;1.60;;
52878;SDS011;38747;53.140;6.498;2023-07-28T13:34:15;3.67;;;1.63;;
52878;SDS011;38747;53.140;6.498;2023-07-28T13:36:41;3.90;;;1.50;;
52878;SDS011;38747;53.140;6.498;2023-07-28T13:39:08;3.95;;;1.45;;
52878;SDS011;38747;53.140;6.498;2023-07-28T13:41:34;4.25;;;1.55;;
52878;SDS011;38747;53.140;6.498;2023-07-28T13:44:00;3.37;;;1.60;;
52878;SDS011;38747;53.140;6.498;2023-07-28T13:46:25;4.05;;;1.55;;
52878;SDS011;38747;53.140;6.498;2023-07-28T13:48:51;3.63;;;1.80;;
52878;SDS011;38747;53.140;6.498;2023-07-28T13:51:17;5.13;;;1.92;;
52878;SDS011;38747;53.140;6.498;2023-07-28T13:53:42;5.67;;;2.60;;
52878;SDS011;38747;53.140;6.498;2023-07-28T13:56:08;4.85;;;1.75;;
52878;SDS011;38747;53.140;6.498;2023-07-28T13:58:34;5.27;;;2.13;;
52878;SDS011;38747;53.140;6.498;2023-07-28T14:00:59;4.90;;;2.10;;
52878;SDS011;38747;53.140;6.498;2023-07-28T14:03:25;5.63;;;2.20;;
52878;SDS011;38747;53.140;6.498;2023-07-28T14:05:51;4.07;;;1.75;;
52878;SDS011;38747;53.140;6.498;2023-07-28T14:08:17;4.00;;;1.80;;
52878;SDS011;38747;53.140;6.498;2023-07-28T14:10:45;5.75;;;2.40;;
52878;SDS011;38747;53.140;6.498;2023-07-28T14:13:11;5.40;;;2.53;;
52878;SDS011;38747;53.140;6.498;2023-07-28T14:15:38;7.87;;;2.10;;
52878;SDS011;38747;53.140;6.498;2023-07-28T14:18:04;5.78;;;2.10;;
52878;SDS011;38747;53.140;6.498;2023-07-28T14:20:29;5.78;;;2.20;;
52878;SDS011;38747;53.140;6.498;2023-07-28T14:22:55;5.83;;;2.43;;
52878;SDS011;38747;53.140;6.498;2023-07-28T14:25:20;5.10;;;1.93;;
52878;SDS011;38747;53.140;6.498;2023-07-28T14:27:46;4.78;;;2.13;;
52878;SDS011;38747;53.140;6.498;2023-07-28T14:30:12;5.87;;;2.43;;
52878;SDS011;38747;53.140;6.498;2023-07-28T14:32:38;7.00;;;3.45;;
52878;SDS011;38747;53.140;6.498;2023-07-28T14:35:03;5.95;;;2.60;;
52878;SDS011;38747;53.140;6.498;2023-07-28T14:37:29;5.80;;;3.00;;
52878;SDS011;38747;53.140;6.498;2023-07-28T14:39:55;6.72;;;2.85;;
52878;SDS011;38747;53.140;6.498;2023-07-28T14:42:20;5.83;;;2.83;;
52878;SDS011;38747;53.140;6.498;2023-07-28T14:44:46;6.90;;;3.20;;
52878;SDS011;38747;53.140;6.498;2023-07-28T14:47:12;5.30;;;2.90;;
52878;SDS011;38747;53.140;6.498;2023-07-28T14:49:37;5.63;;;2.50;;
52878;SDS011;38747;53.140;6.498;2023-07-28T14:52:03;6.50;;;2.90;;
52878;SDS011;38747;53.140;6.498;2023-07-28T14:54:29;6.65;;;3.20;;